Time;durP1;ratioP1;P1;durP2;ratioP2;P2;SDS_P1;SDS_P2;PMS_P1;PMS_P2;Temp;Humidity;BMP_temperature;BMP_pressure;BME280_temperature;BME280_humidity;BME280_pressure;Samples;Min_cycle;Max_cycle;Signal;HPM_P1;HPM_P2
2021/12/16 00:09:02;;;;;;;52.67;31.00;;;26.20;99.90;;;;;;5034886;28;20025;-66
2021/12/16 00:35:05;;;;;;;61.17;38.70;;;26.40;99.90;;;;;;5035149;28;20109;-64
2021/12/16 00:37:31;;;;;;;56.13;37.85;;;26.30;99.90;;;;;;5034941;28;20026;-63
2021/12/16 00:39:58;;;;;;;54.47;35.67;;;26.30;99.90;;;;;;5034526;28;20033;-65
2021/12/16 00:42:37;;;;;;;68.10;46.13;;;26.40;99.90;;;;;;5034579;28;20038;-66
2021/12/16 00:47:47;;;;;;;78.70;50.72;;;26.50;99.90;;;;;;5034476;28;20029;-66
2021/12/16 00:50:23;;;;;;;83.53;51.90;;;26.50;99.90;;;;;;5034437;28;20042;-66
2021/12/16 00:55:33;;;;;;;29.13;19.90;;;26.60;99.90;;;;;;5033834;28;20025;-66
2021/12/16 00:58:00;;;;;;;28.42;20.75;;;26.60;99.90;;;;;;5034377;28;20021;-66
2021/12/16 01:00:30;;;;;;;39.35;22.95;;;26.60;99.90;;;;;;5034130;28;20029;-66
2021/12/16 01:35:12;;;;;;;52.95;37.38;;;26.90;99.90;;;;;;5033719;28;20022;-67
2021/12/16 01:40:23;;;;;;;66.80;36.35;;;27.10;99.90;;;;;;5033853;28;20390;-68
2021/12/16 01:45:54;;;;;;;88.82;48.70;;;27.30;99.90;;;;;;5033439;28;20042;-65
2021/12/16 01:49:01;;;;;;;47.55;33.40;;;27.50;99.90;;;;;;5033240;28;20033;-66
2021/12/16 01:51:15;;;;;;;44.55;32.65;;;27.50;99.90;;;;;;5033190;28;20029;-66
2021/12/16 01:54:29;;;;;;;29.00;18.40;;;27.60;99.90;;;;;;5033181;28;20394;-66
2021/12/16 01:56:45;;;;;;;30.80;20.58;;;27.70;99.90;;;;;;5033417;28;20117;-64
2021/12/16 01:59:18;;;;;;;23.83;16.10;;;28.00;99.90;;;;;;5032910;28;20017;-66
2021/12/16 02:01:45;;;;;;;27.95;18.10;;;28.00;99.90;;;;;;5033083;28;20037;-66
2021/12/16 02:04:22;;;;;;;33.15;15.45;;;28.10;99.90;;;;;;5032130;28;20017;-64
2021/12/16 02:09:31;;;;;;;18.10;13.38;;;28.20;99.90;;;;;;5032490;28;20482;-65
2021/12/16 02:12:13;;;;;;;20.80;12.98;;;28.40;99.90;;;;;;5032801;28;20034;-66
2021/12/16 02:28:20;;;;;;;28.63;20.90;;;28.50;99.90;;;;;;5043037;28;20079;-65
2021/12/16 02:36:14;;;;;;;31.27;20.95;;;28.40;99.90;;;;;;5032600;28;20022;-66
2021/12/16 02:38:44;;;;;;;76.53;53.25;;;28.50;99.90;;;;;;5033254;28;20022;-67
2021/12/16 02:41:11;;;;;;;21.48;12.27;;;28.60;99.90;;;;;;5032362;28;20155;-68
2021/12/16 02:43:56;;;;;;;15.80;11.63;;;28.50;99.90;;;;;;5033051;28;20037;-65
2021/12/16 02:49:01;;;;;;;17.45;12.63;;;28.60;99.90;;;;;;5033519;28;20033;-66
2021/12/16 02:51:28;;;;;;;20.10;12.10;;;28.50;99.90;;;;;;5032296;28;20041;-65
2021/12/16 02:54:01;;;;;;;18.20;13.43;;;28.50;99.90;;;;;;5031739;28;20041;-65
2021/12/16 02:56:29;;;;;;;18.92;12.45;;;28.50;99.90;;;;;;5032808;28;20025;-64
2021/12/16 02:58:57;;;;;;;24.33;13.05;;;28.50;99.90;;;;;;5032899;28;20116;-65
2021/12/16 03:01:38;;;;;;;19.92;10.80;;;28.50;99.90;;;;;;5031246;28;20109;-65
2021/12/16 03:04:09;;;;;;;19.63;11.90;;;28.50;99.90;;;;;;5033055;28;20184;-63
2021/12/16 03:06:38;;;;;;;74.15;51.25;;;28.60;99.90;;;;;;5033875;28;20033;-64
2021/12/16 03:09:09;;;;;;;39.58;11.80;;;28.50;99.90;;;;;;5027190;28;20053;-66
2021/12/16 03:16:49;;;;;;;13.40;7.60;;;28.60;99.90;;;;;;5026088;28;20025;-64
2021/12/16 03:21:58;;;;;;;17.75;8.77;;;28.70;99.90;;;;;;5022008;28;20214;-64
2021/12/16 03:34:55;;;;;;;15.63;9.52;;;29.00;99.90;;;;;;5027544;28;20312;-66
2021/12/16 03:37:24;;;;;;;14.13;9.20;;;29.00;99.90;;;;;;5027933;28;20029;-65
2021/12/16 03:40:12;;;;;;;12.55;9.85;;;29.00;99.90;;;;;;5018054;28;20105;-66
2021/12/16 03:42:43;;;;;;;22.40;9.88;;;29.00;99.90;;;;;;5026728;28;20521;-66
2021/12/16 03:47:59;;;;;;;23.73;12.52;;;29.20;99.90;;;;;;5024949;28;20041;-66
2021/12/16 03:50:27;;;;;;;18.60;12.68;;;29.50;99.90;;;;;;5028025;28;20065;-65
2021/12/16 03:52:54;;;;;;;19.77;10.43;;;29.60;99.90;;;;;;5026493;28;20032;-65
2021/12/16 03:55:21;;;;;;;18.23;10.40;;;29.70;99.90;;;;;;5035483;28;20430;-65
2021/12/16 03:57:48;;;;;;;20.77;11.60;;;29.60;99.90;;;;;;5035120;28;20036;-65
2021/12/16 04:00:20;;;;;;;19.90;12.35;;;29.60;99.90;;;;;;5035238;28;20037;-65
2021/12/16 04:02:47;;;;;;;21.58;13.15;;;29.60;99.90;;;;;;5035717;28;20140;-66
2021/12/16 04:05:15;;;;;;;31.40;13.38;;;29.60;99.90;;;;;;5035595;28;20124;-64
2021/12/16 04:07:43;;;;;;;28.05;13.43;;;29.60;99.90;;;;;;5037636;28;20096;-65
2021/12/16 04:10:15;;;;;;;79.65;58.15;;;29.50;99.90;;;;;;5029352;28;20030;-65
2021/12/16 04:12:42;;;;;;;86.18;48.38;;;29.50;99.90;;;;;;5023722;28;20044;-67
2021/12/16 04:15:10;;;;;;;22.25;13.45;;;29.60;99.90;;;;;;5023658;28;20038;-68
2021/12/16 04:17:37;;;;;;;25.10;14.18;;;29.50;99.90;;;;;;5027312;28;20033;-66
2021/12/16 04:20:08;;;;;;;21.27;14.07;;;29.50;99.90;;;;;;5019967;28;20018;-64
2021/12/16 04:22:42;;;;;;;18.80;10.95;;;29.50;99.90;;;;;;5023884;28;20048;-68
2021/12/16 04:25:16;;;;;;;13.50;10.35;;;29.50;99.90;;;;;;5023960;28;20045;-69
2021/12/16 04:27:45;;;;;;;18.13;11.23;;;29.40;99.90;;;;;;5023887;28;20029;-67
2021/12/16 04:30:14;;;;;;;24.17;10.57;;;29.40;99.90;;;;;;5022986;28;20034;-65
2021/12/16 04:32:41;;;;;;;18.83;11.00;;;29.40;99.90;;;;;;5027156;28;20069;-65
2021/12/16 04:35:09;;;;;;;15.80;10.43;;;29.40;99.90;;;;;;5035005;28;20235;-65
2021/12/16 04:37:36;;;;;;;22.60;10.18;;;29.40;99.90;;;;;;5034566;28;20040;-65
2021/12/16 04:40:07;;;;;;;18.23;10.77;;;29.30;99.90;;;;;;5035586;28;20017;-66
2021/12/16 04:42:38;;;;;;;12.48;9.57;;;29.30;99.90;;;;;;5059353;28;20033;-66
2021/12/16 04:45:07;;;;;;;17.95;12.82;;;29.20;99.90;;;;;;5047549;28;20044;-66
2021/12/16 04:47:34;;;;;;;17.35;11.65;;;29.20;99.90;;;;;;5034330;28;20030;-65
2021/12/16 04:50:01;;;;;;;14.27;10.02;;;29.40;99.90;;;;;;5035707;28;20055;-67
2021/12/16 04:52:28;;;;;;;15.35;11.07;;;29.40;99.90;;;;;;5034230;28;20092;-66
2021/12/16 04:54:54;;;;;;;16.35;10.35;;;29.40;99.90;;;;;;5039881;28;20049;-65
2021/12/16 04:57:21;;;;;;;13.20;9.48;;;29.50;99.90;;;;;;5054421;28;20028;-65
2021/12/16 04:59:48;;;;;;;30.98;11.20;;;29.70;99.90;;;;;;5045284;28;20041;-66
2021/12/16 05:02:19;;;;;;;19.75;9.35;;;29.80;99.90;;;;;;5028992;28;20041;-66
2021/12/16 05:04:46;;;;;;;14.40;8.77;;;30.00;99.90;;;;;;5027156;28;20133;-66
2021/12/16 05:07:13;;;;;;;24.27;10.57;;;30.10;99.90;;;;;;5025608;28;20026;-64
2021/12/16 05:12:14;;;;;;;11.65;8.68;;;30.30;99.90;;;;;;5025871;28;20087;-65
2021/12/16 05:14:42;;;;;;;13.38;7.47;;;30.30;99.90;;;;;;5027614;28;20212;-66
2021/12/16 05:17:25;;;;;;;16.58;9.27;;;30.20;99.90;;;;;;5031674;28;20029;-66
2021/12/16 05:19:53;;;;;;;9.88;7.75;;;30.30;99.90;;;;;;5026509;28;20027;-66
2021/12/16 05:25:00;;;;;;;15.63;9.05;;;30.50;99.90;;;;;;5018846;28;20486;-66
2021/12/16 05:27:27;;;;;;;14.57;9.88;;;30.70;99.90;;;;;;5025011;28;20030;-65
2021/12/16 05:29:54;;;;;;;14.90;8.98;;;30.70;99.90;;;;;;5034354;28;20363;-65
2021/12/16 05:32:23;;;;;;;16.92;9.63;;;30.60;99.90;;;;;;5032348;28;20482;-65
2021/12/16 05:34:50;;;;;;;21.27;10.65;;;30.60;99.90;;;;;;5030343;28;20120;-65
2021/12/16 05:37:16;;;;;;;13.30;9.52;;;30.60;99.90;;;;;;5020429;28;20048;-63
2021/12/16 05:39:43;;;;;;;23.85;10.65;;;30.50;99.90;;;;;;5018920;28;20025;-64
2021/12/16 05:42:10;;;;;;;13.32;9.18;;;30.50;99.90;;;;;;5016691;28;20053;-64
2021/12/16 05:44:37;;;;;;;14.07;9.70;;;30.60;99.90;;;;;;5025094;28;20490;-64
2021/12/16 05:47:04;;;;;;;11.45;9.52;;;30.50;99.90;;;;;;5024899;28;20371;-65
2021/12/16 05:49:31;;;;;;;13.23;9.60;;;30.30;99.90;;;;;;5017119;28;20029;-66
2021/12/16 05:51:58;;;;;;;19.27;10.93;;;30.30;99.90;;;;;;5019604;28;20108;-64
2021/12/16 05:54:24;;;;;;;18.85;11.52;;;30.40;99.90;;;;;;5027602;28;20079;-65
2021/12/16 05:56:51;;;;;;;13.82;11.43;;;30.40;99.90;;;;;;5026933;28;20620;-65
2021/12/16 05:59:19;;;;;;;13.25;10.75;;;30.40;99.90;;;;;;5019783;28;20061;-64
2021/12/16 06:01:48;;;;;;;15.68;11.70;;;30.40;99.90;;;;;;5027069;28;20092;-64
2021/12/16 06:04:15;;;;;;;17.83;11.57;;;30.40;99.90;;;;;;5030117;28;20033;-64
2021/12/16 06:06:42;;;;;;;54.80;39.22;;;30.40;99.90;;;;;;5023447;28;20538;-64
2021/12/16 06:09:09;;;;;;;47.88;16.75;;;30.50;99.90;;;;;;5030372;28;20053;-65
2021/12/16 06:11:41;;;;;;;34.20;12.90;;;30.50;99.90;;;;;;5019487;28;20030;-64
2021/12/16 06:14:18;;;;;;;58.60;14.82;;;30.50;99.90;;;;;;5025784;28;20049;-65
2021/12/16 06:27:26;;;;;;;25.10;11.05;;;30.80;99.90;;;;;;5026473;28;20033;-64
2021/12/16 06:29:55;;;;;;;13.02;10.02;;;30.70;99.90;;;;;;5020898;28;20113;-65
2021/12/16 06:32:22;;;;;;;21.98;11.10;;;30.70;99.90;;;;;;5024261;28;20057;-64
2021/12/16 06:34:49;;;;;;;18.77;10.48;;;30.70;99.90;;;;;;5022556;28;20022;-64
2021/12/16 06:37:16;;;;;;;20.35;10.45;;;30.60;99.90;;;;;;5024139;28;20110;-63
2021/12/16 06:39:43;;;;;;;17.33;10.38;;;30.60;99.90;;;;;;5026132;28;20538;-63
2021/12/16 06:42:11;;;;;;;13.45;10.10;;;30.70;99.90;;;;;;5026028;28;20112;-65
2021/12/16 06:44:44;;;;;;;17.60;10.35;;;30.80;99.90;;;;;;5024528;28;20076;-64
2021/12/16 06:47:18;;;;;;;12.30;9.40;;;30.80;99.90;;;;;;5022345;28;20025;-64
2021/12/16 06:49:48;;;;;;;15.82;9.82;;;30.70;99.90;;;;;;5027890;28;20417;-63
2021/12/16 06:52:18;;;;;;;21.05;10.90;;;30.70;99.90;;;;;;5034741;28;20068;-65
2021/12/16 06:57:36;;;;;;;18.35;12.75;;;30.60;99.90;;;;;;5035755;28;20029;-66
2021/12/16 07:00:13;;;;;;;22.70;16.10;;;30.60;99.90;;;;;;5027065;28;20032;-65
2021/12/16 07:02:55;;;;;;;23.05;16.58;;;30.40;99.90;;;;;;5026431;28;20045;-65
2021/12/16 07:05:30;;;;;;;26.95;16.13;;;30.40;99.90;;;;;;5026338;28;20025;-64
2021/12/16 07:07:59;;;;;;;22.70;12.82;;;30.40;99.90;;;;;;5027372;28;20470;-64
2021/12/16 07:10:27;;;;;;;13.55;10.65;;;30.40;99.90;;;;;;5026673;28;20041;-65
2021/12/16 07:12:56;;;;;;;19.52;13.52;;;30.50;99.90;;;;;;5024114;28;21072;-66
2021/12/16 07:15:27;;;;;;;19.10;12.50;;;30.60;99.90;;;;;;5024839;28;20026;-66
2021/12/16 07:17:56;;;;;;;23.58;13.07;;;30.60;99.90;;;;;;5025016;28;20029;-63
2021/12/16 07:20:28;;;;;;;25.02;12.50;;;30.60;99.90;;;;;;5021771;28;20428;-66
2021/12/16 07:22:57;;;;;;;12.75;11.18;;;30.70;99.90;;;;;;5023736;28;20282;-65
2021/12/16 07:25:24;;;;;;;31.73;24.48;;;30.70;99.90;;;;;;5028730;28;20045;-62
2021/12/16 07:27:51;;;;;;;212.80;149.57;;;30.90;99.90;;;;;;5019717;28;20136;-65
2021/12/16 07:30:22;;;;;;;84.60;64.72;;;31.00;99.90;;;;;;5031610;28;20536;-64
2021/12/16 07:32:51;;;;;;;12.27;9.63;;;31.00;99.90;;;;;;5025383;28;20036;-64
2021/12/16 07:35:22;;;;;;;11.77;9.00;;;31.00;99.90;;;;;;5027011;28;20053;-65
2021/12/16 07:37:50;;;;;;;17.27;10.43;;;31.00;99.90;;;;;;5028117;28;20112;-64
2021/12/16 07:40:18;;;;;;;19.48;11.27;;;31.10;99.90;;;;;;5028234;28;20030;-63
2021/12/16 07:42:59;;;;;;;20.92;12.00;;;31.20;99.90;;;;;;5036043;28;20040;-65
2021/12/16 07:45:27;;;;;;;13.32;10.63;;;31.30;99.90;;;;;;5034056;28;20043;-64
2021/12/16 07:47:54;;;;;;;27.52;12.50;;;31.30;99.90;;;;;;5036055;28;20035;-65
2021/12/16 07:50:22;;;;;;;15.88;11.25;;;31.30;99.90;;;;;;5036503;28;20033;-65
2021/12/16 07:52:50;;;;;;;26.05;11.38;;;31.30;99.90;;;;;;5035523;28;20116;-65
2021/12/16 07:55:18;;;;;;;19.92;13.10;;;31.30;99.90;;;;;;5036160;28;20029;-65
2021/12/16 07:57:45;;;;;;;19.77;13.93;;;31.30;99.90;;;;;;5032087;28;20494;-66
2021/12/16 08:00:18;;;;;;;19.65;11.35;;;31.40;99.90;;;;;;5035495;28;20057;-64
2021/12/16 08:02:45;;;;;;;13.57;11.48;;;31.50;99.90;;;;;;5034682;28;20124;-64
2021/12/16 08:05:13;;;;;;;17.73;11.23;;;31.50;99.90;;;;;;5035644;28;20490;-64
2021/12/16 08:07:42;;;;;;;13.02;9.93;;;31.60;99.90;;;;;;5035135;28;20030;-65
2021/12/16 08:10:13;;;;;;;9.73;8.00;;;31.60;99.90;;;;;;5035101;28;20029;-64
2021/12/16 08:12:40;;;;;;;17.45;9.18;;;31.60;99.40;;;;;;5035003;28;20041;-65
2021/12/16 08:15:08;;;;;;;54.65;12.13;;;31.60;99.90;;;;;;5027229;28;20053;-64
2021/12/16 08:17:35;;;;;;;100.38;17.75;;;31.60;99.90;;;;;;5022056;28;20379;-64
2021/12/16 08:20:04;;;;;;;60.72;15.40;;;31.50;99.90;;;;;;5015566;28;20030;-65
2021/12/16 08:22:31;;;;;;;46.05;12.65;;;31.70;99.90;;;;;;5015659;28;20057;-64
2021/12/16 08:24:58;;;;;;;109.03;18.73;;;31.80;99.90;;;;;;5034732;28;20087;-62
2021/12/16 08:27:24;;;;;;;39.83;11.23;;;31.80;99.90;;;;;;5030120;28;20429;-64
2021/12/16 08:29:51;;;;;;;11.52;7.78;;;31.70;99.60;;;;;;5033528;28;20037;-63
2021/12/16 08:32:18;;;;;;;15.65;10.32;;;31.80;97.90;;;;;;5034988;28;20037;-64
2021/12/16 08:34:46;;;;;;;12.07;8.30;;;31.80;99.20;;;;;;5034792;28;20383;-64
2021/12/16 08:37:14;;;;;;;10.27;6.93;;;31.90;97.80;;;;;;5035175;28;20029;-64
2021/12/16 08:39:42;;;;;;;27.60;9.07;;;32.00;96.70;;;;;;5034593;28;20037;-64
2021/12/16 08:42:10;;;;;;;16.55;8.25;;;32.00;98.00;;;;;;5033198;28;20033;-65
2021/12/16 08:44:37;;;;;;;24.55;7.93;;;32.00;94.90;;;;;;5035215;28;20155;-65
2021/12/16 08:47:10;;;;;;;27.45;9.93;;;32.00;95.30;;;;;;5035477;28;20025;-64
2021/12/16 08:49:38;;;;;;;30.67;10.20;;;32.00;94.70;;;;;;5034693;28;20363;-62
2021/12/16 08:52:09;;;;;;;32.95;8.68;;;31.90;97.10;;;;;;5034849;28;20037;-64
2021/12/16 08:54:37;;;;;;;32.42;10.30;;;32.00;96.80;;;;;;5034636;28;20030;-64
2021/12/16 08:57:04;;;;;;;14.15;7.68;;;32.10;95.60;;;;;;5033303;28;20032;-65
2021/12/16 08:59:31;;;;;;;18.52;8.65;;;32.20;93.50;;;;;;5030167;28;20025;-65
2021/12/16 09:01:59;;;;;;;16.23;6.82;;;32.20;93.40;;;;;;5034626;28;20041;-65
2021/12/16 09:04:28;;;;;;;46.92;10.68;;;32.20;92.20;;;;;;5022574;28;20358;-65
2021/12/16 09:07:01;;;;;;;13.52;9.00;;;32.20;95.30;;;;;;5034937;28;20037;-64
2021/12/16 09:09:32;;;;;;;16.67;8.38;;;32.20;93.10;;;;;;5034383;28;20035;-64
2021/12/16 09:14:31;;;;;;;20.80;10.65;;;32.20;93.60;;;;;;5033892;28;20026;-64
2021/12/16 09:16:58;;;;;;;106.72;20.63;;;32.20;93.20;;;;;;5034549;28;20113;-63
2021/12/16 09:19:25;;;;;;;492.08;79.00;;;32.10;94.20;;;;;;5034423;28;20390;-64
2021/12/16 09:21:52;;;;;;;202.13;35.80;;;32.10;96.10;;;;;;5021492;28;20034;-64
2021/12/16 09:24:19;;;;;;;243.82;40.17;;;32.10;95.20;;;;;;5015152;28;20063;-64
2021/12/16 09:26:46;;;;;;;186.32;34.25;;;32.10;95.40;;;;;;5014765;28;20096;-64
2021/12/16 09:29:13;;;;;;;252.77;46.25;;;32.10;95.00;;;;;;5014364;28;20033;-64
2021/12/16 09:31:40;;;;;;;166.43;29.08;;;32.10;95.00;;;;;;5014535;28;20030;-63
2021/12/16 09:34:08;;;;;;;42.95;11.98;;;32.00;94.90;;;;;;5014090;28;20022;-64
2021/12/16 09:36:39;;;;;;;98.65;19.90;;;32.00;93.90;;;;;;5014267;28;20026;-65
2021/12/16 09:39:12;;;;;;;29.80;9.90;;;32.00;94.60;;;;;;5014141;28;20489;-63
2021/12/16 09:41:42;;;;;;;104.30;21.35;;;32.10;93.80;;;;;;5014200;28;20030;-64
2021/12/16 09:44:09;;;;;;;96.50;22.20;;;32.10;94.80;;;;;;5013937;28;20149;-64
2021/12/16 09:46:36;;;;;;;68.88;19.10;;;32.20;94.60;;;;;;5033387;28;20390;-64
2021/12/16 09:49:03;;;;;;;89.13;21.55;;;32.20;94.30;;;;;;5033370;28;20021;-63
2021/12/16 09:51:34;;;;;;;61.63;24.90;;;32.10;94.10;;;;;;5032126;28;20021;-64
2021/12/16 09:54:06;;;;;;;28.92;15.90;;;32.10;94.10;;;;;;5016164;28;20022;-63
2021/12/16 09:56:33;;;;;;;23.67;13.85;;;32.10;92.80;;;;;;5033589;28;20029;-64
2021/12/16 09:59:02;;;;;;;36.17;15.57;;;32.10;92.00;;;;;;5033846;28;20029;-64
2021/12/16 10:01:30;;;;;;;69.35;25.50;;;32.00;93.30;;;;;;5033425;28;20041;-65
2021/12/16 10:04:02;;;;;;;93.25;48.85;;;32.00;95.40;;;;;;5033423;28;20028;-65
2021/12/16 10:06:31;;;;;;;99.38;33.08;;;31.90;95.90;;;;;;5015876;28;20541;-64
2021/12/16 10:09:00;;;;;;;143.70;46.38;;;31.80;96.30;;;;;;5019065;28;20096;-65
2021/12/16 10:11:28;;;;;;;60.92;29.85;;;31.90;97.10;;;;;;5033347;28;20052;-65
2021/12/16 10:19:18;;;;;;;31.20;14.50;;;31.80;97.80;;;;;;5033111;28;20033;-66
2021/12/16 10:21:45;;;;;;;24.38;9.75;;;31.50;98.60;;;;;;5023026;28;20549;-64
2021/12/16 10:24:21;;;;;;;22.15;9.93;;;31.30;99.20;;;;;;5014048;28;20089;-65
2021/12/16 10:27:15;;;;;;;27.63;12.10;;;31.20;99.90;;;;;;5026445;28;20334;-65
2021/12/16 10:29:50;;;;;;;40.03;13.52;;;31.10;99.90;;;;;;5027128;28;20025;-64
2021/12/16 10:32:40;;;;;;;25.00;12.50;;;31.00;99.90;;;;;;5037160;28;20033;-65
2021/12/16 10:35:14;;;;;;;25.05;14.10;;;31.00;99.90;;;;;;5036440;28;20025;-65
2021/12/16 10:37:46;;;;;;;18.50;11.48;;;31.10;99.90;;;;;;5037069;28;20029;-66
2021/12/16 10:40:32;;;;;;;;;;;31.10;99.90;;;;;;5031622;28;20026;-65
2021/12/16 10:43:04;;;;;;;27.20;13.68;;;31.00;99.90;;;;;;5037014;28;19934;-65
2021/12/16 10:45:45;;;;;;;26.40;14.52;;;30.90;99.90;;;;;;5047659;28;20373;-65
2021/12/16 10:48:18;;;;;;;29.08;16.00;;;30.70;99.90;;;;;;5042645;28;20101;-65
2021/12/16 10:50:52;;;;;;;28.45;13.18;;;30.60;99.90;;;;;;5037062;28;20056;-65
2021/12/16 10:53:46;;;;;;;60.47;35.60;;;30.60;99.90;;;;;;5036726;28;20508;-66
2021/12/16 10:56:15;;;;;;;66.53;37.22;;;30.60;99.90;;;;;;5035605;28;20029;-65
2021/12/16 10:58:46;;;;;;;68.32;43.33;;;30.60;99.90;;;;;;5036308;28;20049;-64
2021/12/16 11:01:20;;;;;;;53.35;36.85;;;30.40;99.90;;;;;;5036004;28;20013;-63
2021/12/16 11:03:46;;;;;;;79.72;50.55;;;30.30;99.90;;;;;;5036682;28;20038;-65
2021/12/16 11:06:29;;;;;;;92.05;58.47;;;30.30;99.90;;;;;;5036617;28;20040;-63
2021/12/16 11:09:15;;;;;;;94.65;64.80;;;30.30;99.90;;;;;;5036694;28;20525;-64
2021/12/16 11:11:42;;;;;;;153.30;94.13;;;30.30;99.90;;;;;;5036176;28;20033;-64
2021/12/16 11:14:09;;;;;;;95.22;63.33;;;30.20;99.90;;;;;;5036686;28;20053;-64
2021/12/16 11:16:36;;;;;;;81.53;46.55;;;30.10;99.90;;;;;;5037023;28;20389;-64
2021/12/16 11:19:05;;;;;;;69.97;40.42;;;30.10;99.90;;;;;;5036838;28;20109;-63
2021/12/16 11:21:40;;;;;;;82.22;50.05;;;30.10;99.90;;;;;;5026454;28;20483;-64
2021/12/16 11:24:25;;;;;;;61.72;37.65;;;30.20;99.90;;;;;;5016858;28;20423;-64
2021/12/16 11:26:52;;;;;;;53.83;33.13;;;30.20;99.90;;;;;;5016592;28;20057;-64
2021/12/16 11:29:22;;;;;;;36.35;18.55;;;30.10;99.90;;;;;;5016429;28;20068;-64
2021/12/16 11:31:49;;;;;;;33.58;19.90;;;30.10;99.90;;;;;;5020403;28;20033;-65
2021/12/16 11:34:19;;;;;;;39.38;21.75;;;30.10;99.90;;;;;;5036521;28;20485;-65
2021/12/16 11:36:53;;;;;;;66.82;38.30;;;30.20;99.90;;;;;;5035923;28;20038;-64
2021/12/16 11:39:21;;;;;;;98.13;53.78;;;30.20;99.90;;;;;;5036016;28;20056;-64
2021/12/16 11:42:01;;;;;;;62.53;33.35;;;30.10;99.90;;;;;;5036195;28;20143;-64
2021/12/16 11:44:35;;;;;;;70.07;41.78;;;30.00;99.90;;;;;;5035827;28;20025;-66
2021/12/16 11:47:08;;;;;;;25.55;15.82;;;29.90;99.90;;;;;;5025071;28;20029;-65
2021/12/16 11:49:36;;;;;;;20.30;11.95;;;29.90;99.90;;;;;;5035939;28;20030;-64
2021/12/16 11:52:13;;;;;;;30.63;17.73;;;30.00;99.90;;;;;;5035936;28;20040;-65
2021/12/16 11:54:42;;;;;;;32.60;20.33;;;30.00;99.90;;;;;;5035660;28;20493;-64
2021/12/16 11:57:12;;;;;;;39.90;15.68;;;29.90;99.90;;;;;;5035822;28;20088;-64
2021/12/16 11:59:58;;;;;;;18.20;12.27;;;29.70;99.90;;;;;;5035921;28;20029;-64
2021/12/16 12:02:35;;;;;;;24.02;12.43;;;29.70;99.90;;;;;;5035472;28;20115;-65
2021/12/16 12:05:13;;;;;;;34.22;18.33;;;29.60;99.90;;;;;;5035830;28;20037;-65
2021/12/16 12:07:43;;;;;;;35.50;22.08;;;29.30;99.90;;;;;;5035498;28;20549;-64
2021/12/16 12:10:10;;;;;;;26.52;18.60;;;29.00;99.90;;;;;;5035593;28;20375;-64
2021/12/16 12:12:50;;;;;;;85.55;32.15;;;29.00;99.90;;;;;;5035490;28;20036;-65
2021/12/16 12:15:19;;;;;;;22.95;12.45;;;28.60;99.90;;;;;;5035455;28;20097;-66
2021/12/16 12:17:56;;;;;;;26.08;9.95;;;28.00;99.90;;;;;;5035042;28;20040;-66
2021/12/16 12:20:29;;;;;;;24.13;11.82;;;27.90;99.90;;;;;;5035095;28;20017;-66
2021/12/16 12:22:57;;;;;;;19.75;7.47;;;27.80;99.90;;;;;;5035359;28;20029;-65
2021/12/16 12:25:24;;;;;;;15.07;7.13;;;27.90;99.90;;;;;;5043277;28;20036;-64
2021/12/16 12:27:51;;;;;;;14.52;6.90;;;28.10;99.90;;;;;;5037932;28;20601;-64
2021/12/16 12:30:19;;;;;;;26.90;12.18;;;28.20;99.90;;;;;;5034832;28;20033;-66
2021/12/16 12:32:51;;;;;;;30.55;14.43;;;28.30;99.90;;;;;;5034557;28;20117;-63
2021/12/16 12:35:23;;;;;;;21.58;10.38;;;28.30;99.90;;;;;;5034823;28;20028;-65
2021/12/16 12:37:54;;;;;;;24.60;13.32;;;28.30;99.90;;;;;;5034757;28;20040;-65
2021/12/16 12:40:29;;;;;;;36.30;19.50;;;28.40;99.90;;;;;;5033332;28;20030;-65
2021/12/16 12:42:57;;;;;;;45.75;21.63;;;28.40;99.90;;;;;;5034308;28;20112;-64
2021/12/16 12:45:27;;;;;;;31.02;16.27;;;28.30;99.90;;;;;;5034590;28;20029;-66
2021/12/16 12:47:57;;;;;;;22.48;11.32;;;28.30;99.90;;;;;;5034086;28;20026;-63
2021/12/16 12:50:31;;;;;;;21.17;11.50;;;28.30;99.90;;;;;;5029001;28;20435;-66
2021/12/16 12:53:10;;;;;;;15.88;10.05;;;28.30;99.90;;;;;;5027236;28;20308;-65
2021/12/16 12:55:37;;;;;;;20.83;11.98;;;28.10;99.90;;;;;;5023109;28;20029;-65
2021/12/16 12:58:16;;;;;;;26.40;13.02;;;28.30;99.90;;;;;;5026845;28;20017;-65
2021/12/16 13:00:48;;;;;;;19.83;13.48;;;28.40;99.90;;;;;;5029640;28;20026;-63
2021/12/16 13:03:22;;;;;;;27.63;13.40;;;28.50;99.90;;;;;;5036048;28;20036;-64
2021/12/16 13:06:00;;;;;;;20.27;13.60;;;28.50;99.90;;;;;;5031952;28;20117;-64
2021/12/16 13:08:32;;;;;;;23.80;13.52;;;28.60;99.90;;;;;;5024953;28;20352;-66
2021/12/16 13:11:09;;;;;;;24.85;15.15;;;28.70;99.90;;;;;;5029508;28;20409;-65
2021/12/16 13:13:44;;;;;;;28.27;15.43;;;28.70;99.90;;;;;;5024044;28;20375;-64
2021/12/16 13:27:01;;;;;;;35.72;22.70;;;28.50;99.90;;;;;;5022683;28;20139;-64
2021/12/16 13:32:14;;;;;;;31.60;18.23;;;28.40;99.90;;;;;;5025032;28;20216;-64
2021/12/16 13:34:52;;;;;;;39.08;20.63;;;28.40;99.90;;;;;;5027975;28;20056;-64
2021/12/16 13:37:25;;;;;;;31.98;21.83;;;28.40;99.90;;;;;;5025968;28;20056;-65
2021/12/16 13:39:58;;;;;;;39.47;22.15;;;28.30;99.90;;;;;;5030378;28;20100;-65
2021/12/16 13:42:39;;;;;;;43.35;22.48;;;28.30;99.90;;;;;;5024822;28;20160;-65
2021/12/16 13:45:17;;;;;;;37.03;21.05;;;28.30;99.90;;;;;;5028430;28;20044;-65
2021/12/16 13:47:58;;;;;;;27.52;18.33;;;28.40;99.90;;;;;;5028030;28;20621;-65
2021/12/16 14:00:03;;;;;;;28.88;18.42;;;28.40;99.90;;;;;;5040473;28;20025;-65
2021/12/16 14:02:04;;;;;;;32.75;20.63;;;28.50;99.90;;;;;;5036123;28;20057;-65
2021/12/16 14:09:38;;;;;;;34.35;21.35;;;28.40;99.90;;;;;;5033722;28;20502;-64
2021/12/16 14:13:20;;;;;;;41.55;27.05;;;28.30;99.90;;;;;;5033720;28;20056;-64
2021/12/16 14:23:16;;;;;;;29.50;19.08;;;27.50;99.90;;;;;;5034047;28;20038;-64
2021/12/16 14:31:32;;;;;;;29.23;18.70;;;27.70;99.90;;;;;;5033261;28;20112;-65
2021/12/16 14:42:02;;;;;;;25.40;15.48;;;27.60;99.90;;;;;;5034275;28;20026;-66
2021/12/16 14:49:51;;;;;;;17.35;10.70;;;27.30;99.90;;;;;;5025954;28;20030;-65
2021/12/16 14:52:29;;;;;;;18.00;9.65;;;27.10;99.90;;;;;;5031742;28;20036;-66
2021/12/16 14:55:00;;;;;;;12.73;7.22;;;27.00;99.90;;;;;;5032974;28;20021;-66
2021/12/16 14:57:31;;;;;;;12.68;5.80;;;26.90;99.90;;;;;;5024595;28;20026;-65
2021/12/16 14:59:58;;;;;;;7.93;5.10;;;26.80;99.90;;;;;;5019524;28;20041;-64
2021/12/16 15:02:31;;;;;;;8.38;5.25;;;26.70;99.90;;;;;;5015754;28;20049;-65
2021/12/16 15:04:57;;;;;;;9.82;4.43;;;26.80;99.90;;;;;;5016623;28;20105;-66
2021/12/16 15:07:26;;;;;;;9.25;4.03;;;26.90;99.90;;;;;;5024051;28;20068;-65
2021/12/16 15:09:55;;;;;;;11.43;4.68;;;26.90;99.90;;;;;;5031827;28;20479;-64
2021/12/16 15:44:10;;;;;;;10.10;4.25;;;26.80;99.90;;;;;;5026438;28;20025;-65
2021/12/16 15:46:38;;;;;;;13.80;4.65;;;26.80;99.90;;;;;;5030051;28;20030;-64
2021/12/16 15:49:06;;;;;;;22.38;7.80;;;26.80;99.90;;;;;;5035985;28;20369;-66
2021/12/16 15:51:33;;;;;;;17.02;8.20;;;26.80;99.90;;;;;;5024572;28;20038;-66
2021/12/16 15:54:01;;;;;;;22.10;9.45;;;26.90;99.90;;;;;;5016733;28;20029;-65
2021/12/16 15:56:33;;;;;;;18.30;8.88;;;27.00;99.90;;;;;;5023208;28;20041;-65
2021/12/16 15:59:10;;;;;;;26.63;7.40;;;27.10;99.90;;;;;;5037202;28;20162;-65
2021/12/16 16:01:43;;;;;;;21.90;7.57;;;27.10;99.90;;;;;;5040846;28;20094;-65
2021/12/16 16:04:14;;;;;;;17.67;7.50;;;26.90;99.90;;;;;;5056850;28;20083;-65
2021/12/16 16:06:44;;;;;;;19.87;7.53;;;26.90;99.90;;;;;;5056501;28;20029;-65
2021/12/16 16:09:11;;;;;;;22.85;8.00;;;26.90;99.90;;;;;;5019637;28;20109;-65
2021/12/16 16:11:44;;;;;;;13.82;7.32;;;27.00;99.90;;;;;;5030477;28;20041;-63
2021/12/16 16:14:11;;;;;;;12.65;6.20;;;27.00;99.90;;;;;;5016404;28;20073;-65
2021/12/16 16:16:45;;;;;;;32.05;12.80;;;27.10;99.90;;;;;;5032981;28;20036;-65
2021/12/16 16:19:19;;;;;;;19.30;9.48;;;27.00;99.90;;;;;;5016726;28;20032;-65
2021/12/16 16:21:49;;;;;;;13.48;6.90;;;27.00;99.90;;;;;;5028403;28;20069;-65
2021/12/16 16:24:21;;;;;;;10.80;6.38;;;27.00;99.90;;;;;;5043756;28;20020;-63
2021/12/16 16:26:50;;;;;;;9.73;6.20;;;27.10;99.90;;;;;;5056333;28;20054;-65
2021/12/16 16:29:20;;;;;;;17.52;8.90;;;27.00;99.90;;;;;;5053084;28;20455;-65
2021/12/16 16:31:48;;;;;;;15.65;6.78;;;27.00;99.90;;;;;;5036016;28;20041;-65
2021/12/16 16:34:28;;;;;;;15.98;8.55;;;27.00;99.90;;;;;;5035301;28;20470;-64
2021/12/16 16:36:58;;;;;;;19.00;9.25;;;27.10;99.90;;;;;;5036337;28;20107;-64
2021/12/16 16:39:29;;;;;;;16.35;7.43;;;27.00;99.90;;;;;;5036121;28;20037;-65
2021/12/16 16:42:00;;;;;;;11.00;5.55;;;27.00;99.90;;;;;;5036018;28;20087;-65